sensor_id;sensor_type;location;lat;lon;timestamp;temperature;humidity
23160;DHT22;11748;50.844;4.396;2022-12-29T00:02:24;12.30;99.90
23160;DHT22;11748;50.844;4.396;2022-12-29T00:04:50;12.30;99.90
23160;DHT22;11748;50.844;4.396;2022-12-29T00:07:18;12.20;99.90
23160;DHT22;11748;50.844;4.396;2022-12-29T00:09:43;12.40;99.90
23160;DHT22;11748;50.844;4.396;2022-12-29T00:12:09;12.40;99.90
23160;DHT22;11748;50.844;4.396;2022-12-29T00:14:35;12.30;99.90
23160;DHT22;11748;50.844;4.396;2022-12-29T00:17:19;12.50;99.90
23160;DHT22;11748;50.844;4.396;2022-12-29T00:19:45;12.20;99.90
23160;DHT22;11748;50.844;4.396;2022-12-29T00:22:29;12.30;99.90
23160;DHT22;11748;50.844;4.396;2022-12-29T00:25:14;12.30;99.90
23160;DHT22;11748;50.844;4.396;2022-12-29T00:27:59;12.40;99.90
23160;DHT22;11748;50.844;4.396;2022-12-29T00:30:43;12.40;99.90
23160;DHT22;11748;50.844;4.396;2022-12-29T00:33:32;12.30;99.90
23160;DHT22;11748;50.844;4.396;2022-12-29T00:36:28;12.30;99.90
23160;DHT22;11748;50.844;4.396;2022-12-29T00:39:02;12.30;99.90
23160;DHT22;11748;50.844;4.396;2022-12-29T00:41:48;12.50;99.90
23160;DHT22;11748;50.844;4.396;2022-12-29T00:44:32;12.50;99.90
23160;DHT22;11748;50.844;4.396;2022-12-29T00:46:58;12.40;99.90
23160;DHT22;11748;50.844;4.396;2022-12-29T00:49:27;12.50;99.90
23160;DHT22;11748;50.844;4.396;2022-12-29T00:54:31;12.50;99.90
23160;DHT22;11748;50.844;4.396;2022-12-29T00:56:56;12.60;99.90
23160;DHT22;11748;50.844;4.396;2022-12-29T00:59:22;12.60;99.90
23160;DHT22;11748;50.844;4.396;2022-12-29T01:01:50;12.70;99.90
23160;DHT22;11748;50.844;4.396;2022-12-29T01:04:18;12.60;99.90
23160;DHT22;11748;50.844;4.396;2022-12-29T01:06:43;12.60;99.90
23160;DHT22;11748;50.844;4.396;2022-12-29T01:09:10;12.70;99.90
23160;DHT22;11748;50.844;4.396;2022-12-29T01:11:54;12.80;99.90
23160;DHT22;11748;50.844;4.396;2022-12-29T01:14:21;12.80;99.90
23160;DHT22;11748;50.844;4.396;2022-12-29T01:16:47;12.70;99.90
23160;DHT22;11748;50.844;4.396;2022-12-29T01:19:14;12.70;99.90
23160;DHT22;11748;50.844;4.396;2022-12-29T01:21:40;12.60;99.90
23160;DHT22;11748;50.844;4.396;2022-12-29T01:24:06;12.50;99.90
23160;DHT22;11748;50.844;4.396;2022-12-29T01:26:32;12.50;99.90
23160;DHT22;11748;50.844;4.396;2022-12-29T01:28:57;12.60;99.90
23160;DHT22;11748;50.844;4.396;2022-12-29T01:31:24;12.40;99.90
23160;DHT22;11748;50.844;4.396;2022-12-29T01:33:49;12.30;99.90
23160;DHT22;11748;50.844;4.396;2022-12-29T01:36:17;12.20;99.90
23160;DHT22;11748;50.844;4.396;2022-12-29T01:38:43;12.20;99.90
23160;DHT22;11748;50.844;4.396;2022-12-29T01:41:11;12.20;99.90
23160;DHT22;11748;50.844;4.396;2022-12-29T01:43:59;12.20;99.90
23160;DHT22;11748;50.844;4.396;2022-12-29T01:46:42;12.10;99.90
23160;DHT22;11748;50.844;4.396;2022-12-29T01:49:14;11.90;99.90
23160;DHT22;11748;50.844;4.396;2022-12-29T01:51:44;12.00;99.90
23160;DHT22;11748;50.844;4.396;2022-12-29T01:54:22;12.00;99.90
23160;DHT22;11748;50.844;4.396;2022-12-29T01:56:51;12.10;99.90
23160;DHT22;11748;50.844;4.396;2022-12-29T01:59:21;12.10;99.90
23160;DHT22;11748;50.844;4.396;2022-12-29T02:01:48;12.20;99.90
23160;DHT22;11748;50.844;4.396;2022-12-29T02:04:14;12.00;99.90
23160;DHT22;11748;50.844;4.396;2022-12-29T02:06:52;11.90;99.90
23160;DHT22;11748;50.844;4.396;2022-12-29T02:09:19;11.90;99.90
23160;DHT22;11748;50.844;4.396;2022-12-29T02:11:44;11.80;99.90
23160;DHT22;11748;50.844;4.396;2022-12-29T02:14:12;11.60;99.90
23160;DHT22;11748;50.844;4.396;2022-12-29T02:16:57;11.50;99.90
23160;DHT22;11748;50.844;4.396;2022-12-29T02:22:27;11.10;99.90
23160;DHT22;11748;50.844;4.396;2022-12-29T02:33:56;10.70;99.90
23160;DHT22;11748;50.844;4.396;2022-12-29T02:36:38;10.60;99.90
23160;DHT22;11748;50.844;4.396;2022-12-29T02:42:07;10.50;99.90
23160;DHT22;11748;50.844;4.396;2022-12-29T02:47:39;10.50;99.90
23160;DHT22;11748;50.844;4.396;2022-12-29T02:50:08;10.50;99.90
23160;DHT22;11748;50.844;4.396;2022-12-29T02:52:48;10.60;99.90
23160;DHT22;11748;50.844;4.396;2022-12-29T02:55:14;10.60;99.90
23160;DHT22;11748;50.844;4.396;2022-12-29T02:57:40;10.60;99.90
23160;DHT22;11748;50.844;4.396;2022-12-29T03:00:16;10.60;99.90
23160;DHT22;11748;50.844;4.396;2022-12-29T03:11:06;10.20;99.90
23160;DHT22;11748;50.844;4.396;2022-12-29T03:13:59;10.10;99.90
23160;DHT22;11748;50.844;4.396;2022-12-29T03:16:55;10.00;99.90
23160;DHT22;11748;50.844;4.396;2022-12-29T03:19:30;9.90;99.90
23160;DHT22;11748;50.844;4.396;2022-12-29T03:22:08;9.90;99.90
23160;DHT22;11748;50.844;4.396;2022-12-29T03:25:03;10.00;99.90
23160;DHT22;11748;50.844;4.396;2022-12-29T03:27:43;10.20;99.90
23160;DHT22;11748;50.844;4.396;2022-12-29T03:30:09;10.20;99.90
23160;DHT22;11748;50.844;4.396;2022-12-29T03:32:39;10.20;99.90
23160;DHT22;11748;50.844;4.396;2022-12-29T03:35:09;10.20;99.90
23160;DHT22;11748;50.844;4.396;2022-12-29T03:37:45;10.30;99.90
23160;DHT22;11748;50.844;4.396;2022-12-29T03:40:12;10.40;99.90
23160;DHT22;11748;50.844;4.396;2022-12-29T03:42:38;10.50;99.90
23160;DHT22;11748;50.844;4.396;2022-12-29T03:45:06;10.50;99.90
23160;DHT22;11748;50.844;4.396;2022-12-29T03:47:32;10.50;99.90
23160;DHT22;11748;50.844;4.396;2022-12-29T03:49:58;10.60;99.90
23160;DHT22;11748;50.844;4.396;2022-12-29T03:52:24;10.50;99.90
23160;DHT22;11748;50.844;4.396;2022-12-29T03:54:50;10.40;99.90
23160;DHT22;11748;50.844;4.396;2022-12-29T03:57:15;10.40;99.90
23160;DHT22;11748;50.844;4.396;2022-12-29T03:59:41;10.40;99.90
23160;DHT22;11748;50.844;4.396;2022-12-29T04:02:07;10.30;99.90
23160;DHT22;11748;50.844;4.396;2022-12-29T04:04:32;10.30;99.90
23160;DHT22;11748;50.844;4.396;2022-12-29T04:06:58;10.20;99.90
23160;DHT22;11748;50.844;4.396;2022-12-29T04:09:23;10.20;99.90
23160;DHT22;11748;50.844;4.396;2022-12-29T04:11:49;10.20;99.90
23160;DHT22;11748;50.844;4.396;2022-12-29T04:14:15;10.30;99.90
23160;DHT22;11748;50.844;4.396;2022-12-29T04:16:41;10.20;99.90
23160;DHT22;11748;50.844;4.396;2022-12-29T04:19:07;10.10;99.90
23160;DHT22;11748;50.844;4.396;2022-12-29T04:21:33;10.20;99.90
23160;DHT22;11748;50.844;4.396;2022-12-29T04:23:59;10.10;99.90
23160;DHT22;11748;50.844;4.396;2022-12-29T04:26:25;10.20;99.90
23160;DHT22;11748;50.844;4.396;2022-12-29T04:28:51;10.20;99.90
23160;DHT22;11748;50.844;4.396;2022-12-29T04:31:16;10.40;99.90
23160;DHT22;11748;50.844;4.396;2022-12-29T04:33:42;10.50;99.90
23160;DHT22;11748;50.844;4.396;2022-12-29T04:36:08;10.60;99.90
23160;DHT22;11748;50.844;4.396;2022-12-29T04:38:33;10.60;99.90
23160;DHT22;11748;50.844;4.396;2022-12-29T04:41:00;10.70;99.90
23160;DHT22;11748;50.844;4.396;2022-12-29T04:43:26;10.70;99.90
23160;DHT22;11748;50.844;4.396;2022-12-29T04:45:52;10.60;99.90
23160;DHT22;11748;50.844;4.396;2022-12-29T04:48:17;10.60;99.90
23160;DHT22;11748;50.844;4.396;2022-12-29T04:50:43;10.60;99.90
23160;DHT22;11748;50.844;4.396;2022-12-29T04:53:09;10.50;99.90
23160;DHT22;11748;50.844;4.396;2022-12-29T04:55:36;10.60;99.90
23160;DHT22;11748;50.844;4.396;2022-12-29T04:58:01;10.60;99.90
23160;DHT22;11748;50.844;4.396;2022-12-29T05:00:27;10.70;99.90
23160;DHT22;11748;50.844;4.396;2022-12-29T05:02:53;10.80;99.90
23160;DHT22;11748;50.844;4.396;2022-12-29T05:05:18;10.90;99.90
23160;DHT22;11748;50.844;4.396;2022-12-29T05:07:44;10.90;99.90
23160;DHT22;11748;50.844;4.396;2022-12-29T05:10:10;10.80;99.90
23160;DHT22;11748;50.844;4.396;2022-12-29T05:12:37;10.90;99.90
23160;DHT22;11748;50.844;4.396;2022-12-29T05:15:04;10.70;99.90
23160;DHT22;11748;50.844;4.396;2022-12-29T05:17:30;10.70;99.90
23160;DHT22;11748;50.844;4.396;2022-12-29T05:19:56;10.90;99.90
23160;DHT22;11748;50.844;4.396;2022-12-29T05:22:22;11.00;99.90
23160;DHT22;11748;50.844;4.396;2022-12-29T05:24:47;11.00;99.90
23160;DHT22;11748;50.844;4.396;2022-12-29T05:27:13;10.90;99.90
23160;DHT22;11748;50.844;4.396;2022-12-29T05:29:39;10.90;99.90
23160;DHT22;11748;50.844;4.396;2022-12-29T05:32:05;10.90;99.90
23160;DHT22;11748;50.844;4.396;2022-12-29T05:34:30;10.90;99.90
23160;DHT22;11748;50.844;4.396;2022-12-29T05:36:56;11.10;99.90
23160;DHT22;11748;50.844;4.396;2022-12-29T05:39:22;11.20;99.90
23160;DHT22;11748;50.844;4.396;2022-12-29T05:41:48;11.30;99.90
23160;DHT22;11748;50.844;4.396;2022-12-29T05:44:14;11.20;99.90
23160;DHT22;11748;50.844;4.396;2022-12-29T05:46:40;11.20;99.90
23160;DHT22;11748;50.844;4.396;2022-12-29T05:49:06;11.20;99.90
23160;DHT22;11748;50.844;4.396;2022-12-29T05:51:31;11.10;99.90
23160;DHT22;11748;50.844;4.396;2022-12-29T05:53:58;11.10;99.90
23160;DHT22;11748;50.844;4.396;2022-12-29T05:56:24;10.90;99.90
23160;DHT22;11748;50.844;4.396;2022-12-29T05:58:49;10.90;99.90
23160;DHT22;11748;50.844;4.396;2022-12-29T06:01:15;10.90;99.90
23160;DHT22;11748;50.844;4.396;2022-12-29T06:03:41;10.70;99.90
23160;DHT22;11748;50.844;4.396;2022-12-29T06:06:07;10.80;99.90
23160;DHT22;11748;50.844;4.396;2022-12-29T06:08:33;10.90;99.90
23160;DHT22;11748;50.844;4.396;2022-12-29T06:10:59;10.90;99.90
23160;DHT22;11748;50.844;4.396;2022-12-29T06:13:25;10.90;99.90
23160;DHT22;11748;50.844;4.396;2022-12-29T06:15:51;10.90;99.90
23160;DHT22;11748;50.844;4.396;2022-12-29T06:18:17;10.80;99.90
23160;DHT22;11748;50.844;4.396;2022-12-29T06:20:42;10.60;99.90
23160;DHT22;11748;50.844;4.396;2022-12-29T06:23:08;10.50;99.90
23160;DHT22;11748;50.844;4.396;2022-12-29T06:25:34;10.50;99.90
23160;DHT22;11748;50.844;4.396;2022-12-29T06:28:02;10.50;99.90
23160;DHT22;11748;50.844;4.396;2022-12-29T06:30:28;10.50;99.90
23160;DHT22;11748;50.844;4.396;2022-12-29T06:32:53;10.50;99.90
23160;DHT22;11748;50.844;4.396;2022-12-29T06:35:20;10.60;99.90
23160;DHT22;11748;50.844;4.396;2022-12-29T06:37:48;10.60;99.90
23160;DHT22;11748;50.844;4.396;2022-12-29T06:40:14;10.60;99.90
23160;DHT22;11748;50.844;4.396;2022-12-29T06:42:40;10.60;99.90
23160;DHT22;11748;50.844;4.396;2022-12-29T06:45:06;10.60;99.90
23160;DHT22;11748;50.844;4.396;2022-12-29T06:47:34;10.80;99.90
23160;DHT22;11748;50.844;4.396;2022-12-29T06:50:00;10.80;99.90
23160;DHT22;11748;50.844;4.396;2022-12-29T06:52:26;10.90;99.90
23160;DHT22;11748;50.844;4.396;2022-12-29T06:54:51;11.00;99.90
23160;DHT22;11748;50.844;4.396;2022-12-29T06:57:17;10.90;99.90
23160;DHT22;11748;50.844;4.396;2022-12-29T06:59:43;10.80;99.90
23160;DHT22;11748;50.844;4.396;2022-12-29T07:02:12;10.80;99.90
23160;DHT22;11748;50.844;4.396;2022-12-29T07:04:40;10.80;99.90
23160;DHT22;11748;50.844;4.396;2022-12-29T07:07:05;11.00;99.90
23160;DHT22;11748;50.844;4.396;2022-12-29T07:09:31;11.00;99.90
23160;DHT22;11748;50.844;4.396;2022-12-29T07:11:57;11.00;99.90
23160;DHT22;11748;50.844;4.396;2022-12-29T07:14:22;10.90;99.90
23160;DHT22;11748;50.844;4.396;2022-12-29T07:16:48;10.80;99.90
23160;DHT22;11748;50.844;4.396;2022-12-29T07:19:14;10.70;99.90
23160;DHT22;11748;50.844;4.396;2022-12-29T07:21:39;10.80;99.90
23160;DHT22;11748;50.844;4.396;2022-12-29T07:24:05;10.90;99.90
23160;DHT22;11748;50.844;4.396;2022-12-29T07:26:31;10.90;99.90
23160;DHT22;11748;50.844;4.396;2022-12-29T07:28:59;10.90;99.90
23160;DHT22;11748;50.844;4.396;2022-12-29T07:31:25;11.00;99.90
23160;DHT22;11748;50.844;4.396;2022-12-29T07:33:50;11.00;99.90
23160;DHT22;11748;50.844;4.396;2022-12-29T07:36:16;11.10;99.90
23160;DHT22;11748;50.844;4.396;2022-12-29T07:38:42;10.90;99.90
23160;DHT22;11748;50.844;4.396;2022-12-29T07:41:09;10.80;99.90
23160;DHT22;11748;50.844;4.396;2022-12-29T07:43:34;10.90;99.90
23160;DHT22;11748;50.844;4.396;2022-12-29T07:46:00;11.00;99.90
23160;DHT22;11748;50.844;4.396;2022-12-29T07:48:26;11.00;99.90
23160;DHT22;11748;50.844;4.396;2022-12-29T07:50:52;10.90;99.90
23160;DHT22;11748;50.844;4.396;2022-12-29T07:53:18;11.00;99.90
23160;DHT22;11748;50.844;4.396;2022-12-29T07:55:44;11.00;99.90
23160;DHT22;11748;50.844;4.396;2022-12-29T07:58:09;10.90;99.90
23160;DHT22;11748;50.844;4.396;2022-12-29T08:00:35;11.00;99.90
23160;DHT22;11748;50.844;4.396;2022-12-29T08:03:01;11.20;99.90
23160;DHT22;11748;50.844;4.396;2022-12-29T08:05:27;11.20;99.90
23160;DHT22;11748;50.844;4.396;2022-12-29T08:07:52;11.20;99.90
23160;DHT22;11748;50.844;4.396;2022-12-29T08:10:18;11.10;99.90
23160;DHT22;11748;50.844;4.396;2022-12-29T08:12:44;10.90;99.90
23160;DHT22;11748;50.844;4.396;2022-12-29T08:15:11;10.90;99.90
23160;DHT22;11748;50.844;4.396;2022-12-29T08:17:37;10.90;99.90
23160;DHT22;11748;50.844;4.396;2022-12-29T08:20:04;11.10;99.90
23160;DHT22;11748;50.844;4.396;2022-12-29T08:22:30;11.20;99.90
23160;DHT22;11748;50.844;4.396;2022-12-29T08:24:55;11.10;99.90
23160;DHT22;11748;50.844;4.396;2022-12-29T08:27:22;11.10;99.90
23160;DHT22;11748;50.844;4.396;2022-12-29T08:29:47;11.30;99.90
23160;DHT22;11748;50.844;4.396;2022-12-29T08:32:13;11.30;99.90
23160;DHT22;11748;50.844;4.396;2022-12-29T08:34:39;11.30;99.90
23160;DHT22;11748;50.844;4.396;2022-12-29T08:37:05;11.40;99.90
23160;DHT22;11748;50.844;4.396;2022-12-29T08:39:30;11.50;99.90
23160;DHT22;11748;50.844;4.396;2022-12-29T08:41:56;11.50;99.90
23160;DHT22;11748;50.844;4.396;2022-12-29T08:44:22;11.40;99.90
23160;DHT22;11748;50.844;4.396;2022-12-29T08:46:48;11.30;99.90
23160;DHT22;11748;50.844;4.396;2022-12-29T08:49:13;11.20;99.90
23160;DHT22;11748;50.844;4.396;2022-12-29T08:51:39;11.30;99.90
23160;DHT22;11748;50.844;4.396;2022-12-29T08:54:05;11.40;99.90
23160;DHT22;11748;50.844;4.396;2022-12-29T08:56:31;11.30;99.90
23160;DHT22;11748;50.844;4.396;2022-12-29T08:58:57;11.30;99.90
23160;DHT22;11748;50.844;4.396;2022-12-29T09:01:23;11.40;99.90
23160;DHT22;11748;50.844;4.396;2022-12-29T09:03:49;11.60;99.90
23160;DHT22;11748;50.844;4.396;2022-12-29T09:06:17;11.50;99.90
23160;DHT22;11748;50.844;4.396;2022-12-29T09:08:44;11.20;99.90
23160;DHT22;11748;50.844;4.396;2022-12-29T09:11:19;11.20;99.90
23160;DHT22;11748;50.844;4.396;2022-12-29T09:13:46;11.20;99.90
23160;DHT22;11748;50.844;4.396;2022-12-29T09:16:12;11.10;99.90
23160;DHT22;11748;50.844;4.396;2022-12-29T09:18:38;11.20;99.90
23160;DHT22;11748;50.844;4.396;2022-12-29T09:21:06;11.10;99.90
23160;DHT22;11748;50.844;4.396;2022-12-29T09:23:33;11.20;99.90
23160;DHT22;11748;50.844;4.396;2022-12-29T09:25:59;11.30;99.90
23160;DHT22;11748;50.844;4.396;2022-12-29T09:28:25;11.40;99.90
23160;DHT22;11748;50.844;4.396;2022-12-29T09:30:51;11.30;99.90
23160;DHT22;11748;50.844;4.396;2022-12-29T09:33:17;11.20;99.90
23160;DHT22;11748;50.844;4.396;2022-12-29T09:35:52;11.00;99.90
23160;DHT22;11748;50.844;4.396;2022-12-29T09:38:18;11.00;99.90
23160;DHT22;11748;50.844;4.396;2022-12-29T09:40:56;11.00;99.90
23160;DHT22;11748;50.844;4.396;2022-12-29T09:48:47;10.90;99.90
23160;DHT22;11748;50.844;4.396;2022-12-29T09:51:17;10.90;99.90
23160;DHT22;11748;50.844;4.396;2022-12-29T09:54:00;11.00;99.90
23160;DHT22;11748;50.844;4.396;2022-12-29T09:56:28;11.00;99.90
23160;DHT22;11748;50.844;4.396;2022-12-29T09:59:08;11.20;99.90
23160;DHT22;11748;50.844;4.396;2022-12-29T10:04:04;11.30;99.90
23160;DHT22;11748;50.844;4.396;2022-12-29T10:09:33;11.20;99.90
23160;DHT22;11748;50.844;4.396;2022-12-29T10:12:14;11.40;99.90
23160;DHT22;11748;50.844;4.396;2022-12-29T10:17:55;11.40;99.90
23160;DHT22;11748;50.844;4.396;2022-12-29T10:23:29;11.20;99.90
23160;DHT22;11748;50.844;4.396;2022-12-29T10:25:58;11.20;99.90
23160;DHT22;11748;50.844;4.396;2022-12-29T10:28:34;11.20;99.90
23160;DHT22;11748;50.844;4.396;2022-12-29T10:31:03;11.20;99.90
23160;DHT22;11748;50.844;4.396;2022-12-29T10:33:37;11.20;99.90
23160;DHT22;11748;50.844;4.396;2022-12-29T10:36:20;11.40;99.90
23160;DHT22;11748;50.844;4.396;2022-12-29T10:39:19;11.60;99.90
23160;DHT22;11748;50.844;4.396;2022-12-29T10:41:55;11.60;99.90
23160;DHT22;11748;50.844;4.396;2022-12-29T10:44:24;11.50;99.90
23160;DHT22;11748;50.844;4.396;2022-12-29T10:47:06;11.40;99.90
23160;DHT22;11748;50.844;4.396;2022-12-29T10:49:37;11.60;99.90
23160;DHT22;11748;50.844;4.396;2022-12-29T10:52:04;11.60;99.90
23160;DHT22;11748;50.844;4.396;2022-12-29T10:54:56;11.70;99.90
23160;DHT22;11748;50.844;4.396;2022-12-29T10:57:38;11.80;99.90
23160;DHT22;11748;50.844;4.396;2022-12-29T11:00:12;11.80;99.90
23160;DHT22;11748;50.844;4.396;2022-12-29T11:05:52;11.50;99.90
23160;DHT22;11748;50.844;4.396;2022-12-29T11:08:24;11.70;99.90
23160;DHT22;11748;50.844;4.396;2022-12-29T11:11:05;11.80;99.90
23160;DHT22;11748;50.844;4.396;2022-12-29T11:13:35;11.90;99.90
23160;DHT22;11748;50.844;4.396;2022-12-29T11:16:01;12.00;99.90
23160;DHT22;11748;50.844;4.396;2022-12-29T11:18:37;12.10;99.90
23160;DHT22;11748;50.844;4.396;2022-12-29T11:21:07;12.10;99.90
23160;DHT22;11748;50.844;4.396;2022-12-29T11:24:00;12.20;99.90
23160;DHT22;11748;50.844;4.396;2022-12-29T11:26:27;12.40;99.90
23160;DHT22;11748;50.844;4.396;2022-12-29T11:31:42;12.60;99.90
23160;DHT22;11748;50.844;4.396;2022-12-29T11:34:08;12.60;99.90
23160;DHT22;11748;50.844;4.396;2022-12-29T11:36:34;12.30;99.90
23160;DHT22;11748;50.844;4.396;2022-12-29T11:39:01;12.20;99.90
23160;DHT22;11748;50.844;4.396;2022-12-29T11:41:29;11.80;99.90
23160;DHT22;11748;50.844;4.396;2022-12-29T11:44:04;11.70;99.90
23160;DHT22;11748;50.844;4.396;2022-12-29T11:46:35;11.60;99.90
23160;DHT22;11748;50.844;4.396;2022-12-29T11:49:03;11.40;99.90
23160;DHT22;11748;50.844;4.396;2022-12-29T11:51:38;11.40;99.90
23160;DHT22;11748;50.844;4.396;2022-12-29T11:54:09;11.20;99.90
23160;DHT22;11748;50.844;4.396;2022-12-29T11:56:38;11.40;99.90
23160;DHT22;11748;50.844;4.396;2022-12-29T12:01:52;11.30;99.90
23160;DHT22;11748;50.844;4.396;2022-12-29T12:04:25;11.50;99.90
23160;DHT22;11748;50.844;4.396;2022-12-29T12:07:12;11.40;99.90
23160;DHT22;11748;50.844;4.396;2022-12-29T12:09:43;11.30;99.90
23160;DHT22;11748;50.844;4.396;2022-12-29T12:12:41;11.20;99.90
23160;DHT22;11748;50.844;4.396;2022-12-29T12:15:22;11.20;99.90
23160;DHT22;11748;50.844;4.396;2022-12-29T12:18:15;11.20;99.90
23160;DHT22;11748;50.844;4.396;2022-12-29T12:20:48;11.30;99.90
23160;DHT22;11748;50.844;4.396;2022-12-29T12:28:52;10.90;99.90
23160;DHT22;11748;50.844;4.396;2022-12-29T12:34:02;11.20;99.90
23160;DHT22;11748;50.844;4.396;2022-12-29T12:36:53;11.30;99.90
23160;DHT22;11748;50.844;4.396;2022-12-29T12:50:35;11.60;99.90
23160;DHT22;11748;50.844;4.396;2022-12-29T13:20:39;11.20;99.90
23160;DHT22;11748;50.844;4.396;2022-12-29T13:23:14;11.30;99.90
23160;DHT22;11748;50.844;4.396;2022-12-29T13:25:57;11.40;99.90
23160;DHT22;11748;50.844;4.396;2022-12-29T13:28:38;11.40;99.90
23160;DHT22;11748;50.844;4.396;2022-12-29T13:31:25;11.50;99.90
23160;DHT22;11748;50.844;4.396;2022-12-29T13:34:04;11.40;99.90
23160;DHT22;11748;50.844;4.396;2022-12-29T13:36:44;11.30;99.90
23160;DHT22;11748;50.844;4.396;2022-12-29T13:39:19;11.00;99.90
23160;DHT22;11748;50.844;4.396;2022-12-29T13:41:53;11.00;99.90
23160;DHT22;11748;50.844;4.396;2022-12-29T13:44:23;10.90;99.90
23160;DHT22;11748;50.844;4.396;2022-12-29T13:46:51;10.90;99.90
23160;DHT22;11748;50.844;4.396;2022-12-29T13:49:22;10.90;99.90
23160;DHT22;11748;50.844;4.396;2022-12-29T13:51:54;10.70;99.90
23160;DHT22;11748;50.844;4.396;2022-12-29T13:57:41;10.90;99.90
23160;DHT22;11748;50.844;4.396;2022-12-29T14:00:21;10.90;99.90
23160;DHT22;11748;50.844;4.396;2022-12-29T14:05:29;10.90;99.90
23160;DHT22;11748;50.844;4.396;2022-12-29T14:08:04;11.10;99.90
23160;DHT22;11748;50.844;4.396;2022-12-29T14:10:35;11.00;99.90
23160;DHT22;11748;50.844;4.396;2022-12-29T14:15:39;11.00;99.90
23160;DHT22;11748;50.844;4.396;2022-12-29T14:21:17;11.30;99.90
23160;DHT22;11748;50.844;4.396;2022-12-29T14:23:46;11.50;99.90
23160;DHT22;11748;50.844;4.396;2022-12-29T14:28:56;11.50;99.90
23160;DHT22;11748;50.844;4.396;2022-12-29T14:39:38;11.60;99.90
23160;DHT22;11748;50.844;4.396;2022-12-29T14:52:56;11.20;99.90
23160;DHT22;11748;50.844;4.396;2022-12-29T14:55:41;11.20;99.90
23160;DHT22;11748;50.844;4.396;2022-12-29T14:58:31;10.80;99.90
23160;DHT22;11748;50.844;4.396;2022-12-29T15:00:59;10.70;99.90
23160;DHT22;11748;50.844;4.396;2022-12-29T15:03:45;10.70;99.90
23160;DHT22;11748;50.844;4.396;2022-12-29T15:06:13;10.50;99.90
23160;DHT22;11748;50.844;4.396;2022-12-29T15:14:02;10.20;99.90
23160;DHT22;11748;50.844;4.396;2022-12-29T15:16:33;10.00;99.90
23160;DHT22;11748;50.844;4.396;2022-12-29T15:19:01;9.90;99.90
23160;DHT22;11748;50.844;4.396;2022-12-29T15:21:31;9.80;99.90
23160;DHT22;11748;50.844;4.396;2022-12-29T15:23:57;9.60;99.90
23160;DHT22;11748;50.844;4.396;2022-12-29T15:26:23;9.60;99.90
23160;DHT22;11748;50.844;4.396;2022-12-29T15:29:01;9.50;99.90
23160;DHT22;11748;50.844;4.396;2022-12-29T15:31:27;9.40;99.90
23160;DHT22;11748;50.844;4.396;2022-12-29T15:34:00;9.40;99.90
23160;DHT22;11748;50.844;4.396;2022-12-29T15:36:29;9.30;99.90
23160;DHT22;11748;50.844;4.396;2022-12-29T15:39:00;9.10;99.90
23160;DHT22;11748;50.844;4.396;2022-12-29T15:41:50;9.10;99.90
23160;DHT22;11748;50.844;4.396;2022-12-29T15:44:45;9.10;99.90
23160;DHT22;11748;50.844;4.396;2022-12-29T15:47:18;9.10;99.90
23160;DHT22;11748;50.844;4.396;2022-12-29T15:49:48;9.10;99.90
23160;DHT22;11748;50.844;4.396;2022-12-29T15:52:20;9.10;99.90
23160;DHT22;11748;50.844;4.396;2022-12-29T15:54:48;9.10;99.90
23160;DHT22;11748;50.844;4.396;2022-12-29T15:59:50;9.00;99.90
23160;DHT22;11748;50.844;4.396;2022-12-29T16:02:15;9.00;99.90
23160;DHT22;11748;50.844;4.396;2022-12-29T16:04:41;9.20;99.90
23160;DHT22;11748;50.844;4.396;2022-12-29T16:07:30;9.10;99.90
23160;DHT22;11748;50.844;4.396;2022-12-29T16:09:58;9.00;99.90
23160;DHT22;11748;50.844;4.396;2022-12-29T16:12:33;9.00;99.90
23160;DHT22;11748;50.844;4.396;2022-12-29T16:15:06;8.90;99.90
23160;DHT22;11748;50.844;4.396;2022-12-29T16:17:43;8.90;99.90
23160;DHT22;11748;50.844;4.396;2022-12-29T16:20:37;9.00;99.90
23160;DHT22;11748;50.844;4.396;2022-12-29T16:23:05;8.80;99.90
23160;DHT22;11748;50.844;4.396;2022-12-29T16:25:33;8.80;99.90
23160;DHT22;11748;50.844;4.396;2022-12-29T16:28:02;8.80;99.90
23160;DHT22;11748;50.844;4.396;2022-12-29T16:30:31;8.90;99.90
23160;DHT22;11748;50.844;4.396;2022-12-29T16:33:03;8.90;99.90
23160;DHT22;11748;50.844;4.396;2022-12-29T16:35:39;8.80;99.90
23160;DHT22;11748;50.844;4.396;2022-12-29T16:38:18;8.80;99.90
23160;DHT22;11748;50.844;4.396;2022-12-29T16:43:36;8.90;99.90
23160;DHT22;11748;50.844;4.396;2022-12-29T16:46:27;8.80;99.90
23160;DHT22;11748;50.844;4.396;2022-12-29T16:48:55;8.90;99.90
23160;DHT22;11748;50.844;4.396;2022-12-29T16:51:31;8.90;99.90
23160;DHT22;11748;50.844;4.396;2022-12-29T16:53:58;9.00;99.90
23160;DHT22;11748;50.844;4.396;2022-12-29T16:56:27;9.10;99.90
23160;DHT22;11748;50.844;4.396;2022-12-29T17:01:43;9.20;99.90
23160;DHT22;11748;50.844;4.396;2022-12-29T17:04:10;9.30;99.90
23160;DHT22;11748;50.844;4.396;2022-12-29T17:06:37;9.40;99.90
23160;DHT22;11748;50.844;4.396;2022-12-29T17:09:20;9.40;99.90
23160;DHT22;11748;50.844;4.396;2022-12-29T17:11:49;9.20;99.90
23160;DHT22;11748;50.844;4.396;2022-12-29T17:14:33;9.30;99.90
23160;DHT22;11748;50.844;4.396;2022-12-29T17:16:59;9.30;99.90
23160;DHT22;11748;50.844;4.396;2022-12-29T17:19:32;9.30;99.90
23160;DHT22;11748;50.844;4.396;2022-12-29T17:21:58;9.20;99.90
23160;DHT22;11748;50.844;4.396;2022-12-29T17:24:24;9.10;99.90
23160;DHT22;11748;50.844;4.396;2022-12-29T17:26:53;9.00;99.90
23160;DHT22;11748;50.844;4.396;2022-12-29T17:29:31;9.00;99.90
23160;DHT22;11748;50.844;4.396;2022-12-29T17:31:58;9.00;99.90
23160;DHT22;11748;50.844;4.396;2022-12-29T17:34:24;9.00;99.90
23160;DHT22;11748;50.844;4.396;2022-12-29T17:36:50;9.00;99.90
23160;DHT22;11748;50.844;4.396;2022-12-29T17:39:16;9.00;99.90
23160;DHT22;11748;50.844;4.396;2022-12-29T17:41:42;9.10;99.90
23160;DHT22;11748;50.844;4.396;2022-12-29T17:44:15;9.00;99.90
23160;DHT22;11748;50.844;4.396;2022-12-29T17:46:41;8.90;99.90
23160;DHT22;11748;50.844;4.396;2022-12-29T17:49:14;8.90;99.90
23160;DHT22;11748;50.844;4.396;2022-12-29T17:51:41;8.90;99.90
23160;DHT22;11748;50.844;4.396;2022-12-29T17:54:21;8.80;99.90
23160;DHT22;11748;50.844;4.396;2022-12-29T17:56:48;8.90;99.90
23160;DHT22;11748;50.844;4.396;2022-12-29T17:59:14;8.90;99.90
23160;DHT22;11748;50.844;4.396;2022-12-29T18:01:43;9.10;99.90
23160;DHT22;11748;50.844;4.396;2022-12-29T18:04:13;9.20;99.90
23160;DHT22;11748;50.844;4.396;2022-12-29T18:06:40;9.40;99.90
23160;DHT22;11748;50.844;4.396;2022-12-29T18:09:05;9.40;99.90
23160;DHT22;11748;50.844;4.396;2022-12-29T18:11:34;9.30;99.90
23160;DHT22;11748;50.844;4.396;2022-12-29T18:14:00;9.10;99.90
23160;DHT22;11748;50.844;4.396;2022-12-29T18:16:26;9.10;99.90
23160;DHT22;11748;50.844;4.396;2022-12-29T18:18:52;8.90;99.90
23160;DHT22;11748;50.844;4.396;2022-12-29T18:21:20;8.90;99.90
23160;DHT22;11748;50.844;4.396;2022-12-29T18:23:46;8.90;99.90